Time;durP1;ratioP1;P1;durP2;ratioP2;P2;SDS_P1;SDS_P2;PMS_P1;PMS_P2;Temp;Humidity;BMP_temperature;BMP_pressure;BME280_temperature;BME280_humidity;BME280_pressure;Samples;Min_cycle;Max_cycle;Signal;HPM_P1;HPM_P2
2022/09/02 00:00:10;;;;;;;;;;;;;;;;;;1022259;29;19946;-72
2022/09/02 00:00:40;;;;;;;;;;;;;;;;;;1022358;29;20012;-72
2022/09/02 00:01:11;;;;;;;;;;;;;;;;;;1018296;29;19911;-73
2022/09/02 00:01:41;;;;;;;;;;;;;;;;;;1017854;29;20005;-72
2022/09/02 00:02:12;;;;;;;;;;;;;;;;;;1018298;29;20359;-72
2022/09/02 00:02:42;;;;;;;;;;;;;;;;;;1018525;29;19933;-72
2022/09/02 00:03:13;;;;;;;;;;;;;;;;;;1018767;29;19918;-72
2022/09/02 00:03:43;;;;;;;;;;;;;;;;;;1018766;29;19954;-72
2022/09/02 00:04:13;;;;;;;;;;;;;;;;;;1018623;29;19911;-72
2022/09/02 00:04:44;;;;;;;;;;;;;;;;;;1018657;29;20103;-72
2022/09/02 00:05:14;;;;;;;;;;;;;;;;;;1023952;29;20004;-72
2022/09/02 00:05:44;;;;;;;;;;;;;;;;;;1024319;29;19958;-72
2022/09/02 00:06:14;;;;;;;;;;;;;;;;;;1024255;29;19910;-72
2022/09/02 00:06:45;;;;;;;;;;;;;;;;;;1020479;29;19993;-72
2022/09/02 00:07:15;;;;;;;;;;;;;;;;;;1018629;29;19917;-72
2022/09/02 00:07:45;;;;;;;;;;;;;;;;;;1018454;29;19914;-72
2022/09/02 00:08:15;;;;;;;;;;;;;;;;;;1017226;29;19911;-72
2022/09/02 00:08:46;;;;;;;;;;;;;;;;;;1018890;29;20315;-72
2022/09/02 00:09:16;;;;;;;;;;;;;;;;;;1019534;29;19922;-72
2022/09/02 00:09:46;;;;;;;;;;;;;;;;;;1019670;29;20300;-72
2022/09/02 00:10:17;;;;;;;;;;;;;;;;;;1018458;29;19962;-72
2022/09/02 00:10:47;;;;;;;;;;;;;;;;;;1019060;29;19922;-73
2022/09/02 00:11:17;;;;;;;;;;;;;;;;;;1018608;29;20372;-72
2022/09/02 00:11:47;;;;;;;;;;;;;;;;;;1018747;29;19910;-72
2022/09/02 00:12:18;;;;;;;;;;;;;;;;;;1018596;29;19911;-72
2022/09/02 00:12:48;;;;;;;;;;;;;;;;;;1019448;29;19917;-72
2022/09/02 00:13:18;;;;;;;;;;;;;;;;;;1018144;29;19942;-72
2022/09/02 00:13:49;;;;;;;;;;;;;;;;;;1018312;29;20218;-72
2022/09/02 00:14:19;;;;;;;;;;;;;;;;;;1018553;29;20439;-72
2022/09/02 00:14:49;;;;;;;;;;;;;;;;;;1019260;29;20027;-72
2022/09/02 00:15:20;;;;;;;;;;;;;;;;;;1018449;29;19950;-73
2022/09/02 00:15:50;;;;;;;;;;;;;;;;;;1018700;29;19910;-72
2022/09/02 00:16:22;;;;;;;;;;;;;;;;;;1018584;29;19910;-72
2022/09/02 00:16:52;;;;;;;;;;;;;;;;;;1018729;29;19922;-72
2022/09/02 00:17:23;;;;;;;;;;;;;;;;;;1018563;29;19961;-73
2022/09/02 00:17:53;;;;;;;;;;;;;;;;;;1018865;29;19961;-72
2022/09/02 00:18:25;;;;;;;;;;;;;;;;;;1023519;29;19918;-72
2022/09/02 00:18:56;;;;;;;;;;;;;;;;;;1020384;29;19963;-73
2022/09/02 00:19:26;;;;;;;;;;;;;;;;;;1020315;29;20335;-73
2022/09/02 00:19:57;;;;;;;;;;;;;;;;;;1020216;29;19962;-72
2022/09/02 00:20:27;;;;;;;;;;;;;;;;;;1018551;29;19917;-72
2022/09/02 00:20:57;;;;;;;;;;;;;;;;;;1018738;29;20399;-72
2022/09/02 00:21:28;;;;;;;;;;;;;;;;;;1018624;29;19915;-73
2022/09/02 00:21:58;;;;;;;;;;;;;;;;;;1018597;29;19911;-72
2022/09/02 00:22:28;;;;;;;;;;;;;;;;;;1019438;29;19911;-73
2022/09/02 00:22:58;;;;;;;;;;;;;;;;;;1018733;29;19917;-72
2022/09/02 00:23:29;;;;;;;;;;;;;;;;;;1017842;29;19934;-72
2022/09/02 00:23:59;;;;;;;;;;;;;;;;;;1018669;29;19915;-72
2022/09/02 00:24:29;;;;;;;;;;;;;;;;;;1018693;29;19992;-73
2022/09/02 00:25:00;;;;;;;;;;;;;;;;;;1023921;29;19911;-72
2022/09/02 00:25:30;;;;;;;;;;;;;;;;;;1024271;29;19936;-72
2022/09/02 00:26:00;;;;;;;;;;;;;;;;;;1024215;29;19957;-72
2022/09/02 00:26:30;;;;;;;;;;;;;;;;;;1020164;29;19911;-73
2022/09/02 00:27:01;;;;;;;;;;;;;;;;;;1019438;29;19914;-72
2022/09/02 00:27:32;;;;;;;;;;;;;;;;;;1019135;29;19963;-72
2022/09/02 00:28:02;;;;;;;;;;;;;;;;;;1017963;29;19965;-72
2022/09/02 00:28:32;;;;;;;;;;;;;;;;;;1018190;29;19911;-72
2022/09/02 00:29:02;;;;;;;;;;;;;;;;;;1018775;29;19911;-72
2022/09/02 00:29:33;;;;;;;;;;;;;;;;;;1018587;29;20368;-72
2022/09/02 00:30:03;;;;;;;;;;;;;;;;;;1024111;29;19910;-73
2022/09/02 00:30:34;;;;;;;;;;;;;;;;;;1024038;29;19946;-73
2022/09/02 00:31:04;;;;;;;;;;;;;;;;;;1024273;29;20367;-72
2022/09/02 00:31:35;;;;;;;;;;;;;;;;;;1024262;29;19911;-72
2022/09/02 00:32:05;;;;;;;;;;;;;;;;;;1020063;29;19920;-72
2022/09/02 00:32:36;;;;;;;;;;;;;;;;;;1020356;29;20612;-72
2022/09/02 00:33:06;;;;;;;;;;;;;;;;;;1016212;29;19919;-72
2022/09/02 00:33:36;;;;;;;;;;;;;;;;;;1016362;29;20331;-72
2022/09/02 00:34:06;;;;;;;;;;;;;;;;;;1018762;29;19950;-72
2022/09/02 00:34:37;;;;;;;;;;;;;;;;;;1018486;29;19910;-72
2022/09/02 00:35:07;;;;;;;;;;;;;;;;;;1018606;29;20394;-72
2022/09/02 00:35:37;;;;;;;;;;;;;;;;;;1018464;29;19923;-72
2022/09/02 00:36:08;;;;;;;;;;;;;;;;;;1021950;29;19914;-72
2022/09/02 00:36:38;;;;;;;;;;;;;;;;;;1018231;29;19915;-72
2022/09/02 00:37:08;;;;;;;;;;;;;;;;;;1019112;29;19914;-72
2022/09/02 00:37:38;;;;;;;;;;;;;;;;;;1018480;29;19943;-72
2022/09/02 00:38:09;;;;;;;;;;;;;;;;;;1018740;29;20027;-72
2022/09/02 00:38:39;;;;;;;;;;;;;;;;;;1022323;29;20008;-72
2022/09/02 00:39:09;;;;;;;;;;;;;;;;;;1022143;29;20315;-72
2022/09/02 00:39:39;;;;;;;;;;;;;;;;;;1022192;29;20306;-72
2022/09/02 00:40:10;;;;;;;;;;;;;;;;;;1021982;29;19911;-72
2022/09/02 00:40:40;;;;;;;;;;;;;;;;;;1019175;29;20341;-72
2022/09/02 00:41:11;;;;;;;;;;;;;;;;;;1018586;29;19934;-72
2022/09/02 00:41:41;;;;;;;;;;;;;;;;;;1017638;29;19919;-72
2022/09/02 00:42:11;;;;;;;;;;;;;;;;;;1018340;29;19911;-72
2022/09/02 00:42:43;;;;;;;;;;;;;;;;;;1019179;29;19926;-73
2022/09/02 00:43:13;;;;;;;;;;;;;;;;;;1018437;29;20470;-73
2022/09/02 00:43:44;;;;;;;;;;;;;;;;;;1018736;29;19911;-72
2022/09/02 00:44:14;;;;;;;;;;;;;;;;;;1018374;29;20283;-72
2022/09/02 00:44:45;;;;;;;;;;;;;;;;;;1018648;29;19910;-73
2022/09/02 00:45:17;;;;;;;;;;;;;;;;;;1018547;29;19911;-72
2022/09/02 00:45:47;;;;;;;;;;;;;;;;;;1024060;29;19921;-72
2022/09/02 00:46:17;;;;;;;;;;;;;;;;;;1019957;29;20332;-72
2022/09/02 00:46:47;;;;;;;;;;;;;;;;;;1020286;29;19958;-72
2022/09/02 00:47:18;;;;;;;;;;;;;;;;;;1020048;29;20041;-72
2022/09/02 00:47:51;;;;;;;;;;;;;;;;;;1019237;29;19911;-72
2022/09/02 00:48:21;;;;;;;;;;;;;;;;;;1017430;29;19911;-72
2022/09/02 00:48:51;;;;;;;;;;;;;;;;;;1018388;29;19915;-72
2022/09/02 00:49:24;;;;;;;;;;;;;;;;;;1018088;29;19958;-72
2022/09/02 00:49:55;;;;;;;;;;;;;;;;;;1018599;29;19918;-72
2022/09/02 00:50:25;;;;;;;;;;;;;;;;;;1018304;29;20370;-73
2022/09/02 00:50:55;;;;;;;;;;;;;;;;;;1018660;29;20009;-72
2022/09/02 00:51:26;;;;;;;;;;;;;;;;;;1017393;29;19911;-73
2022/09/02 00:51:56;;;;;;;;;;;;;;;;;;1018585;29;19911;-73
2022/09/02 00:52:28;;;;;;;;;;;;;;;;;;1018477;29;19910;-72
2022/09/02 00:52:58;;;;;;;;;;;;;;;;;;1016688;29;19911;-72
2022/09/02 00:53:28;;;;;;;;;;;;;;;;;;1018518;29;19911;-72
2022/09/02 00:53:59;;;;;;;;;;;;;;;;;;1018274;29;19914;-73
2022/09/02 00:54:29;;;;;;;;;;;;;;;;;;1018378;29;19921;-72
2022/09/02 00:54:59;;;;;;;;;;;;;;;;;;1021876;29;19958;-72
2022/09/02 00:55:30;;;;;;;;;;;;;;;;;;1022053;29;19917;-72
2022/09/02 00:56:00;;;;;;;;;;;;;;;;;;1022215;29;19933;-72
2022/09/02 00:56:30;;;;;;;;;;;;;;;;;;1017451;29;19911;-72
2022/09/02 00:57:01;;;;;;;;;;;;;;;;;;1019447;29;19911;-72
2022/09/02 00:57:31;;;;;;;;;;;;;;;;;;1018238;29;19922;-72
2022/09/02 00:58:02;;;;;;;;;;;;;;;;;;1018286;29;19914;-72
2022/09/02 00:58:33;;;;;;;;;;;;;;;;;;1019353;29;20382;-72
2022/09/02 00:59:03;;;;;;;;;;;;;;;;;;1018453;29;19911;-72
2022/09/02 00:59:33;;;;;;;;;;;;;;;;;;1018594;29;19911;-73
2022/09/02 01:00:04;;;;;;;;;;;;;;;;;;1018454;29;20402;-73
2022/09/02 01:00:34;;;;;;;;;;;;;;;;;;1019072;29;20360;-73
2022/09/02 01:01:04;;;;;;;;;;;;;;;;;;1018385;29;20299;-72
2022/09/02 01:01:34;;;;;;;;;;;;;;;;;;1018645;29;19962;-72
2022/09/02 01:02:08;;;;;;;;;;;;;;;;;;1018434;29;19933;-72
2022/09/02 01:02:39;;;;;;;;;;;;;;;;;;1018525;29;19962;-73
2022/09/02 01:03:10;;;;;;;;;;;;;;;;;;1017570;29;19919;-73
2022/09/02 01:03:40;;;;;;;;;;;;;;;;;;1018506;29;20332;-73
2022/09/02 01:04:11;;;;;;;;;;;;;;;;;;1018286;29;19998;-72
2022/09/02 01:04:42;;;;;;;;;;;;;;;;;;1024002;29;19917;-72
2022/09/02 01:05:12;;;;;;;;;;;;;;;;;;1023945;29;19918;-72
2022/09/02 01:05:44;;;;;;;;;;;;;;;;;;1024098;29;19910;-72
2022/09/02 01:06:14;;;;;;;;;;;;;;;;;;1023603;29;19911;-72
2022/09/02 01:06:44;;;;;;;;;;;;;;;;;;1019889;29;19911;-72
2022/09/02 01:07:15;;;;;;;;;;;;;;;;;;1019543;29;20292;-72
2022/09/02 01:07:45;;;;;;;;;;;;;;;;;;1019549;29;20362;-72
2022/09/02 01:08:15;;;;;;;;;;;;;;;;;;1018172;29;19911;-72
2022/09/02 01:08:46;;;;;;;;;;;;;;;;;;1019350;29;19930;-72
2022/09/02 01:09:16;;;;;;;;;;;;;;;;;;1023784;29;20033;-72
2022/09/02 01:09:46;;;;;;;;;;;;;;;;;;1024194;29;19921;-72
2022/09/02 01:10:17;;;;;;;;;;;;;;;;;;1023679;29;20371;-72
2022/09/02 01:10:47;;;;;;;;;;;;;;;;;;1020017;29;19970;-72
2022/09/02 01:11:18;;;;;;;;;;;;;;;;;;1017470;29;19911;-72
2022/09/02 01:11:52;;;;;;;;;;;;;;;;;;1017280;29;19914;-73
2022/09/02 01:12:23;;;;;;;;;;;;;;;;;;1017106;29;20358;-73
2022/09/02 01:12:53;;;;;;;;;;;;;;;;;;1018097;29;19915;-73
2022/09/02 01:13:24;;;;;;;;;;;;;;;;;;1021470;29;20462;-72
2022/09/02 01:13:54;;;;;;;;;;;;;;;;;;1018607;29;19922;-72
2022/09/02 01:14:27;;;;;;;;;;;;;;;;;;1016655;29;19950;-73
2022/09/02 01:14:58;;;;;;;;;;;;;;;;;;1017822;29;19918;-73
2022/09/02 01:15:30;;;;;;;;;;;;;;;;;;1018147;29;19918;-73
2022/09/02 01:16:00;;;;;;;;;;;;;;;;;;1018067;29;19963;-72
2022/09/02 01:16:30;;;;;;;;;;;;;;;;;;1018188;29;19914;-72
2022/09/02 01:17:00;;;;;;;;;;;;;;;;;;1018245;29;20005;-73
2022/09/02 01:17:33;;;;;;;;;;;;;;;;;;1018242;29;20018;-72
2022/09/02 01:18:03;;;;;;;;;;;;;;;;;;1018732;29;19914;-73
2022/09/02 01:18:35;;;;;;;;;;;;;;;;;;1017158;29;20379;-72
2022/09/02 01:19:06;;;;;;;;;;;;;;;;;;1022575;28;19918;-73
2022/09/02 01:19:36;;;;;;;;;;;;;;;;;;1024076;29;20331;-73
2022/09/02 01:20:06;;;;;;;;;;;;;;;;;;1023620;29;19914;-73
2022/09/02 01:20:37;;;;;;;;;;;;;;;;;;1023416;28;19921;-74
2022/09/02 01:21:07;;;;;;;;;;;;;;;;;;1019082;29;19919;-73
2022/09/02 01:21:37;;;;;;;;;;;;;;;;;;1019069;29;20021;-74
2022/09/02 01:22:08;;;;;;;;;;;;;;;;;;1018612;29;21101;-74
2022/09/02 01:22:38;;;;;;;;;;;;;;;;;;1019189;29;19927;-74
2022/09/02 01:23:08;;;;;;;;;;;;;;;;;;1023749;29;20038;-74
2022/09/02 01:23:39;;;;;;;;;;;;;;;;;;1024247;29;20170;-74
2022/09/02 01:24:09;;;;;;;;;;;;;;;;;;1023593;29;19916;-74
2022/09/02 01:24:39;;;;;;;;;;;;;;;;;;1022491;29;20014;-74
2022/09/02 01:25:10;;;;;;;;;;;;;;;;;;1022647;29;20009;-74
2022/09/02 01:25:40;;;;;;;;;;;;;;;;;;1021586;29;19927;-74
2022/09/02 01:26:11;;;;;;;;;;;;;;;;;;1017249;29;19919;-74
2022/09/02 01:26:41;;;;;;;;;;;;;;;;;;1015049;29;19936;-73
2022/09/02 01:27:11;;;;;;;;;;;;;;;;;;1013402;29;20028;-74
2022/09/02 01:27:42;;;;;;;;;;;;;;;;;;1014339;29;19911;-74
2022/09/02 01:28:12;;;;;;;;;;;;;;;;;;1017642;29;20585;-74
2022/09/02 01:28:42;;;;;;;;;;;;;;;;;;1021088;28;20598;-74
2022/09/02 01:29:15;;;;;;;;;;;;;;;;;;1022293;29;20000;-74
2022/09/02 01:29:45;;;;;;;;;;;;;;;;;;1017620;29;19922;-74
2022/09/02 01:30:15;;;;;;;;;;;;;;;;;;1018464;29;19911;-74
2022/09/02 01:30:46;;;;;;;;;;;;;;;;;;1018556;29;19910;-74
2022/09/02 01:31:16;;;;;;;;;;;;;;;;;;1016808;29;20462;-74
2022/09/02 01:31:47;;;;;;;;;;;;;;;;;;1019302;29;19934;-73
2022/09/02 01:32:17;;;;;;;;;;;;;;;;;;1016543;29;20497;-74
2022/09/02 01:32:47;;;;;;;;;;;;;;;;;;1015040;29;20317;-74
2022/09/02 01:33:18;;;;;;;;;;;;;;;;;;1016652;29;19917;-76
2022/09/02 01:33:48;;;;;;;;;;;;;;;;;;1016644;29;20340;-75
2022/09/02 01:34:18;;;;;;;;;;;;;;;;;;1017072;29;19964;-75
2022/09/02 01:34:52;;;;;;;;;;;;;;;;;;1016303;29;20022;-75
2022/09/02 01:35:22;;;;;;;;;;;;;;;;;;1017992;29;19919;-75
2022/09/02 01:35:53;;;;;;;;;;;;;;;;;;1017637;29;20364;-75
2022/09/02 01:36:23;;;;;;;;;;;;;;;;;;1018597;29;19965;-75
2022/09/02 01:36:53;;;;;;;;;;;;;;;;;;1021853;29;19915;-75
2022/09/02 01:37:24;;;;;;;;;;;;;;;;;;1016998;29;20392;-76
2022/09/02 01:37:54;;;;;;;;;;;;;;;;;;1018528;29;20028;-76
2022/09/02 01:38:24;;;;;;;;;;;;;;;;;;1016295;29;20326;-76
2022/09/02 01:38:55;;;;;;;;;;;;;;;;;;1018217;29;19962;-75
2022/09/02 01:39:25;;;;;;;;;;;;;;;;;;1012872;29;20267;-74
2022/09/02 01:39:56;;;;;;;;;;;;;;;;;;1014983;29;19911;-75
2022/09/02 01:40:26;;;;;;;;;;;;;;;;;;1019023;29;20089;-75
2022/09/02 01:40:56;;;;;;;;;;;;;;;;;;1017980;29;19971;-75
2022/09/02 01:41:27;;;;;;;;;;;;;;;;;;1017929;29;20017;-75
2022/09/02 01:41:57;;;;;;;;;;;;;;;;;;1018028;29;20596;-75
2022/09/02 01:42:28;;;;;;;;;;;;;;;;;;1017965;29;19915;-75
2022/09/02 01:42:58;;;;;;;;;;;;;;;;;;1014372;29;19918;-75
2022/09/02 01:43:28;;;;;;;;;;;;;;;;;;1012174;29;20447;-76
2022/09/02 01:43:59;;;;;;;;;;;;;;;;;;1004512;29;19922;-75
2022/09/02 01:44:29;;;;;;;;;;;;;;;;;;1013541;29;19919;-75
2022/09/02 01:44:59;;;;;;;;;;;;;;;;;;1015042;29;20286;-76
2022/09/02 01:45:30;;;;;;;;;;;;;;;;;;1016888;29;19914;-75
2022/09/02 01:46:00;;;;;;;;;;;;;;;;;;1016739;29;20825;-75
2022/09/02 01:46:30;;;;;;;;;;;;;;;;;;1017854;29;20330;-75
2022/09/02 01:47:00;;;;;;;;;;;;;;;;;;1022193;29;19914;-73
2022/09/02 01:47:31;;;;;;;;;;;;;;;;;;1023476;28;20321;-74
2022/09/02 01:48:01;;;;;;;;;;;;;;;;;;1021159;29;20028;-74
2022/09/02 01:48:32;;;;;;;;;;;;;;;;;;1023070;29;19910;-73
2022/09/02 01:49:02;;;;;;;;;;;;;;;;;;1017056;29;20259;-73
2022/09/02 01:49:32;;;;;;;;;;;;;;;;;;1017789;29;19914;-73
2022/09/02 01:50:03;;;;;;;;;;;;;;;;;;1017779;29;19910;-74
2022/09/02 01:50:33;;;;;;;;;;;;;;;;;;1023286;29;19953;-73
2022/09/02 01:51:04;;;;;;;;;;;;;;;;;;1021901;29;19914;-73
2022/09/02 01:51:34;;;;;;;;;;;;;;;;;;1023433;29;19946;-73
2022/09/02 01:52:04;;;;;;;;;;;;;;;;;;1018294;29;20394;-73
2022/09/02 01:52:35;;;;;;;;;;;;;;;;;;1019458;29;19915;-74
2022/09/02 01:53:06;;;;;;;;;;;;;;;;;;1017707;29;19910;-73
2022/09/02 01:53:36;;;;;;;;;;;;;;;;;;1018483;29;19921;-73
2022/09/02 01:54:06;;;;;;;;;;;;;;;;;;1017407;29;20302;-74
2022/09/02 01:54:37;;;;;;;;;;;;;;;;;;1018794;29;19930;-73
2022/09/02 01:55:07;;;;;;;;;;;;;;;;;;1018080;29;19911;-73
2022/09/02 01:55:37;;;;;;;;;;;;;;;;;;1019415;29;20060;-73
2022/09/02 01:56:08;;;;;;;;;;;;;;;;;;1019290;29;19915;-73
2022/09/02 01:56:38;;;;;;;;;;;;;;;;;;1016288;29;19946;-73
2022/09/02 01:57:08;;;;;;;;;;;;;;;;;;1010617;29;20505;-73
2022/09/02 01:57:38;;;;;;;;;;;;;;;;;;1012438;29;19927;-73
2022/09/02 01:58:09;;;;;;;;;;;;;;;;;;1012869;29;19915;-73
2022/09/02 01:58:39;;;;;;;;;;;;;;;;;;1014974;29;20387;-73
2022/09/02 01:59:16;;;;;;;;;;;;;;;;;;1016510;29;20509;-73
2022/09/02 01:59:46;;;;;;;;;;;;;;;;;;1018351;29;19910;-73
2022/09/02 02:00:17;;;;;;;;;;;;;;;;;;1017129;29;19918;-73
2022/09/02 02:00:47;;;;;;;;;;;;;;;;;;1017487;29;20041;-73
2022/09/02 02:01:17;;;;;;;;;;;;;;;;;;1018048;29;20226;-73
2022/09/02 02:01:47;;;;;;;;;;;;;;;;;;1018344;29;20379;-73
2022/09/02 02:02:18;;;;;;;;;;;;;;;;;;1018228;29;19910;-73
2022/09/02 02:02:49;;;;;;;;;;;;;;;;;;1014786;29;19911;-73
2022/09/02 02:03:19;;;;;;;;;;;;;;;;;;1014374;29;19919;-73
2022/09/02 02:03:50;;;;;;;;;;;;;;;;;;1016919;29;19910;-73
2022/09/02 02:04:23;;;;;;;;;;;;;;;;;;1015137;29;19919;-73
2022/09/02 02:04:53;;;;;;;;;;;;;;;;;;1016435;29;20009;-73
2022/09/02 02:05:24;;;;;;;;;;;;;;;;;;1017397;29;20054;-73
2022/09/02 02:05:54;;;;;;;;;;;;;;;;;;1017720;29;19911;-73
2022/09/02 02:06:24;;;;;;;;;;;;;;;;;;1017193;29;19925;-73
2022/09/02 02:06:55;;;;;;;;;;;;;;;;;;1017314;29;19965;-73
2022/09/02 02:07:25;;;;;;;;;;;;;;;;;;1018137;29;19993;-73
2022/09/02 02:07:56;;;;;;;;;;;;;;;;;;1017015;29;20287;-73
2022/09/02 02:08:26;;;;;;;;;;;;;;;;;;1018175;29;19928;-73
2022/09/02 02:08:56;;;;;;;;;;;;;;;;;;1018294;29;20359;-73
2022/09/02 02:09:27;;;;;;;;;;;;;;;;;;1017857;29;20009;-73
2022/09/02 02:09:57;;;;;;;;;;;;;;;;;;1019726;29;20002;-73
2022/09/02 02:10:27;;;;;;;;;;;;;;;;;;1019477;29;19953;-73
2022/09/02 02:10:59;;;;;;;;;;;;;;;;;;1019988;29;19921;-73
2022/09/02 02:11:30;;;;;;;;;;;;;;;;;;1019783;29;19979;-73
2022/09/02 02:12:00;;;;;;;;;;;;;;;;;;1016969;29;20418;-73
2022/09/02 02:12:30;;;;;;;;;;;;;;;;;;1018454;29;19914;-73
2022/09/02 02:13:01;;;;;;;;;;;;;;;;;;1018025;29;19910;-74
2022/09/02 02:13:31;;;;;;;;;;;;;;;;;;1020645;29;19915;-73
2022/09/02 02:14:01;;;;;;;;;;;;;;;;;;1018409;29;19922;-73
2022/09/02 02:14:32;;;;;;;;;;;;;;;;;;1016926;29;19919;-74
2022/09/02 02:15:02;;;;;;;;;;;;;;;;;;1018372;29;19910;-73
2022/09/02 02:15:33;;;;;;;;;;;;;;;;;;1016656;29;19915;-73
2022/09/02 02:16:03;;;;;;;;;;;;;;;;;;1010577;29;19915;-73
2022/09/02 02:16:33;;;;;;;;;;;;;;;;;;1011263;29;19922;-74
2022/09/02 02:17:03;;;;;;;;;;;;;;;;;;1010925;29;20037;-74
2022/09/02 02:17:34;;;;;;;;;;;;;;;;;;1017110;29;19954;-74
2022/09/02 02:18:04;;;;;;;;;;;;;;;;;;1017337;29;19915;-74
2022/09/02 02:18:36;;;;;;;;;;;;;;;;;;1022568;29;19915;-73
2022/09/02 02:19:07;;;;;;;;;;;;;;;;;;1018019;29;19930;-73
2022/09/02 02:19:37;;;;;;;;;;;;;;;;;;1019262;29;20005;-73
2022/09/02 02:20:08;;;;;;;;;;;;;;;;;;1016499;29;19914;-73
2022/09/02 02:20:38;;;;;;;;;;;;;;;;;;1015328;29;20355;-73
2022/09/02 02:21:08;;;;;;;;;;;;;;;;;;1017338;29;19949;-73
2022/09/02 02:21:38;;;;;;;;;;;;;;;;;;1017663;29;20512;-73
2022/09/02 02:22:09;;;;;;;;;;;;;;;;;;1017654;29;19954;-73
2022/09/02 02:22:39;;;;;;;;;;;;;;;;;;1018586;29;19985;-73
2022/09/02 02:23:09;;;;;;;;;;;;;;;;;;1021058;29;19915;-74
2022/09/02 02:23:40;;;;;;;;;;;;;;;;;;1022987;29;20466;-74
2022/09/02 02:24:10;;;;;;;;;;;;;;;;;;1021494;28;19918;-74
2022/09/02 02:24:40;;;;;;;;;;;;;;;;;;1022801;29;19953;-74
2022/09/02 02:25:11;;;;;;;;;;;;;;;;;;1016511;29;19922;-74
2022/09/02 02:25:41;;;;;;;;;;;;;;;;;;1018218;29;20009;-73
2022/09/02 02:26:11;;;;;;;;;;;;;;;;;;1016604;29;20409;-74
2022/09/02 02:26:42;;;;;;;;;;;;;;;;;;1014250;29;19942;-74
2022/09/02 02:27:12;;;;;;;;;;;;;;;;;;1017225;29;20322;-74
2022/09/02 02:27:42;;;;;;;;;;;;;;;;;;1015023;29;20451;-74
2022/09/02 02:28:13;;;;;;;;;;;;;;;;;;1013107;29;20426;-74
2022/09/02 02:28:43;;;;;;;;;;;;;;;;;;1016107;29;19918;-74
2022/09/02 02:29:14;;;;;;;;;;;;;;;;;;1016161;29;20355;-73
2022/09/02 02:29:44;;;;;;;;;;;;;;;;;;1018152;29;19921;-73
2022/09/02 02:30:14;;;;;;;;;;;;;;;;;;1016797;29;20386;-74
2022/09/02 02:30:44;;;;;;;;;;;;;;;;;;1018332;29;20105;-74
2022/09/02 02:31:15;;;;;;;;;;;;;;;;;;1017012;29;20004;-74
2022/09/02 02:31:45;;;;;;;;;;;;;;;;;;1016540;29;19918;-74
2022/09/02 02:32:17;;;;;;;;;;;;;;;;;;1021526;28;20316;-74
2022/09/02 02:32:47;;;;;;;;;;;;;;;;;;1023224;28;19910;-74
2022/09/02 02:33:17;;;;;;;;;;;;;;;;;;1022082;28;19917;-74
2022/09/02 02:33:48;;;;;;;;;;;;;;;;;;1022471;29;19922;-74
2022/09/02 02:34:18;;;;;;;;;;;;;;;;;;1017462;29;20278;-74
2022/09/02 02:34:48;;;;;;;;;;;;;;;;;;1017856;29;20000;-74
2022/09/02 02:35:19;;;;;;;;;;;;;;;;;;1017539;29;19921;-74
2022/09/02 02:35:49;;;;;;;;;;;;;;;;;;1016319;29;19922;-75
2022/09/02 02:36:20;;;;;;;;;;;;;;;;;;1017643;29;21330;-74
2022/09/02 02:36:50;;;;;;;;;;;;;;;;;;1017672;29;19918;-74
2022/09/02 02:37:20;;;;;;;;;;;;;;;;;;1016495;29;19949;-75
2022/09/02 02:37:51;;;;;;;;;;;;;;;;;;1018464;29;20450;-74
2022/09/02 02:38:21;;;;;;;;;;;;;;;;;;1017858;29;20401;-74
2022/09/02 02:38:51;;;;;;;;;;;;;;;;;;1018339;29;19998;-74
2022/09/02 02:39:21;;;;;;;;;;;;;;;;;;1016711;29;20383;-74
2022/09/02 02:39:52;;;;;;;;;;;;;;;;;;1013063;29;20013;-74
2022/09/02 02:40:22;;;;;;;;;;;;;;;;;;1002105;29;21750;-74
2022/09/02 02:40:53;;;;;;;;;;;;;;;;;;1003917;29;19998;-74
2022/09/02 02:41:24;;;;;;;;;;;;;;;;;;1002720;29;20385;-74
2022/09/02 02:41:54;;;;;;;;;;;;;;;;;;1003542;29;20303;-74
2022/09/02 02:42:25;;;;;;;;;;;;;;;;;;1004264;29;20307;-74
2022/09/02 02:42:55;;;;;;;;;;;;;;;;;;1004559;29;19918;-74
2022/09/02 02:43:25;;;;;;;;;;;;;;;;;;1004548;29;19997;-75
2022/09/02 02:43:56;;;;;;;;;;;;;;;;;;1003929;29;20553;-74
2022/09/02 02:44:30;;;;;;;;;;;;;;;;;;1005064;29;20197;-74
2022/09/02 02:45:00;;;;;;;;;;;;;;;;;;1004219;29;20263;-75
2022/09/02 02:45:32;;;;;;;;;;;;;;;;;;1005242;29;20207;-74
2022/09/02 02:46:02;;;;;;;;;;;;;;;;;;1003459;29;20002;-74
2022/09/02 02:46:34;;;;;;;;;;;;;;;;;;1004781;29;21084;-74
2022/09/02 02:47:04;;;;;;;;;;;;;;;;;;1004367;28;20071;-74
2022/09/02 02:47:34;;;;;;;;;;;;;;;;;;1002442;29;20026;-74
2022/09/02 02:48:05;;;;;;;;;;;;;;;;;;1002016;29;19911;-74
2022/09/02 02:48:35;;;;;;;;;;;;;;;;;;1003462;29;19915;-74
2022/09/02 02:49:06;;;;;;;;;;;;;;;;;;999666;29;20357;-74
2022/09/02 02:49:36;;;;;;;;;;;;;;;;;;1001843;29;19930;-74
2022/09/02 02:50:06;;;;;;;;;;;;;;;;;;1001054;29;20345;-74
2022/09/02 02:50:37;;;;;;;;;;;;;;;;;;1001963;29;20517;-74
2022/09/02 02:51:07;;;;;;;;;;;;;;;;;;1004132;29;20223;-75
2022/09/02 02:51:37;;;;;;;;;;;;;;;;;;1005301;29;19915;-74
2022/09/02 02:52:08;;;;;;;;;;;;;;;;;;1004867;29;20164;-75
2022/09/02 02:52:38;;;;;;;;;;;;;;;;;;1005486;29;20373;-74
2022/09/02 02:53:11;;;;;;;;;;;;;;;;;;1007993;29;20363;-74
2022/09/02 02:53:41;;;;;;;;;;;;;;;;;;1007604;29;20544;-75
2022/09/02 02:54:13;;;;;;;;;;;;;;;;;;1003169;29;19911;-75
2022/09/02 02:54:43;;;;;;;;;;;;;;;;;;1004166;29;19919;-74
2022/09/02 02:55:14;;;;;;;;;;;;;;;;;;1004543;29;19914;-74
2022/09/02 02:55:44;;;;;;;;;;;;;;;;;;1007066;29;19999;-74
2022/09/02 02:56:14;;;;;;;;;;;;;;;;;;1004981;29;19919;-75
2022/09/02 02:56:45;;;;;;;;;;;;;;;;;;1005695;29;20545;-76
2022/09/02 02:57:15;;;;;;;;;;;;;;;;;;1010171;29;20257;-75
2022/09/02 02:57:45;;;;;;;;;;;;;;;;;;1006236;29;20467;-75
2022/09/02 02:58:15;;;;;;;;;;;;;;;;;;1006406;29;20166;-75
2022/09/02 02:58:46;;;;;;;;;;;;;;;;;;1006725;29;19914;-75
2022/09/02 02:59:16;;;;;;;;;;;;;;;;;;1005232;29;19918;-75
2022/09/02 02:59:46;;;;;;;;;;;;;;;;;;1011254;29;20488;-74
2022/09/02 03:00:17;;;;;;;;;;;;;;;;;;1006352;29;20217;-75
2022/09/02 03:00:47;;;;;;;;;;;;;;;;;;1006986;29;20241;-75
2022/09/02 03:01:18;;;;;;;;;;;;;;;;;;1006168;29;20851;-75
2022/09/02 03:01:48;;;;;;;;;;;;;;;;;;1005548;29;20393;-74
2022/09/02 03:02:18;;;;;;;;;;;;;;;;;;1008001;29;20249;-74
2022/09/02 03:02:48;;;;;;;;;;;;;;;;;;1007724;29;20009;-75
2022/09/02 03:03:21;;;;;;;;;;;;;;;;;;1009119;29;20193;-75
2022/09/02 03:03:53;;;;;;;;;;;;;;;;;;1004501;29;19918;-73
2022/09/02 03:04:23;;;;;;;;;;;;;;;;;;1006475;29;19919;-74
2022/09/02 03:04:55;;;;;;;;;;;;;;;;;;1005802;29;20197;-76
2022/09/02 03:05:25;;;;;;;;;;;;;;;;;;1001562;29;19922;-76
2022/09/02 03:05:55;;;;;;;;;;;;;;;;;;1001355;29;19911;-76
2022/09/02 03:06:26;;;;;;;;;;;;;;;;;;1001450;29;19915;-75
2022/09/02 03:06:56;;;;;;;;;;;;;;;;;;1001712;29;20274;-76
2022/09/02 03:07:26;;;;;;;;;;;;;;;;;;1006176;29;20184;-73
2022/09/02 03:08:00;;;;;;;;;;;;;;;;;;1009506;28;19910;-78
2022/09/02 03:08:34;;;;;;;;;;;;;;;;;;1008604;29;20020;-74
2022/09/02 03:09:04;;;;;;;;;;;;;;;;;;1007858;29;19945;-74
2022/09/02 03:09:35;;;;;;;;;;;;;;;;;;1004534;29;20018;-75
2022/09/02 03:10:14;;;;;;;;;;;;;;;;;;1004820;29;20049;-76
2022/09/02 03:10:45;;;;;;;;;;;;;;;;;;1006690;29;19895;-73
2022/09/02 03:11:16;;;;;;;;;;;;;;;;;;1005798;29;20480;-74
2022/09/02 03:11:50;;;;;;;;;;;;;;;;;;1001609;29;20471;-75
2022/09/02 03:12:21;;;;;;;;;;;;;;;;;;1001690;29;19923;-73
2022/09/02 03:12:52;;;;;;;;;;;;;;;;;;1004761;29;21000;-73
2022/09/02 03:14:16;;;;;;;;;;;;;;;;;;1005359;29;20454;-74
2022/09/02 03:14:48;;;;;;;;;;;;;;;;;;1005068;29;19957;-74
2022/09/02 03:15:18;;;;;;;;;;;;;;;;;;1005680;29;20184;-73
2022/09/02 03:15:49;;;;;;;;;;;;;;;;;;1007788;29;20001;-74
2022/09/02 03:16:19;;;;;;;;;;;;;;;;;;1007227;29;19922;-74
2022/09/02 03:16:50;;;;;;;;;;;;;;;;;;1002869;29;20466;-74
2022/09/02 03:17:20;;;;;;;;;;;;;;;;;;999133;29;20164;-74
2022/09/02 03:17:51;;;;;;;;;;;;;;;;;;1002915;29;20819;-74
2022/09/02 03:18:30;;;;;;;;;;;;;;;;;;1002338;29;20387;-74
2022/09/02 03:19:03;;;;;;;;;;;;;;;;;;1004706;29;19985;-75
2022/09/02 03:19:34;;;;;;;;;;;;;;;;;;1006897;29;19949;-75
2022/09/02 03:20:04;;;;;;;;;;;;;;;;;;1007756;29;20379;-74
2022/09/02 03:20:35;;;;;;;;;;;;;;;;;;1009680;28;19914;-75
2022/09/02 03:21:06;;;;;;;;;;;;;;;;;;1006396;29;20707;-76
2022/09/02 03:21:37;;;;;;;;;;;;;;;;;;1007855;29;19919;-75
2022/09/02 03:22:08;;;;;;;;;;;;;;;;;;1006269;29;20462;-76
2022/09/02 03:22:39;;;;;;;;;;;;;;;;;;1007459;29;20413;-74
2022/09/02 03:23:11;;;;;;;;;;;;;;;;;;1009887;29;20996;-75
2022/09/02 03:23:42;;;;;;;;;;;;;;;;;;1012956;29;19921;-74
2022/09/02 03:24:12;;;;;;;;;;;;;;;;;;1007955;29;19941;-74
2022/09/02 03:24:42;;;;;;;;;;;;;;;;;;1008191;29;20610;-74
2022/09/02 03:25:13;;;;;;;;;;;;;;;;;;1008665;29;19922;-76
2022/09/02 03:25:43;;;;;;;;;;;;;;;;;;1007825;29;20208;-75
2022/09/02 03:26:14;;;;;;;;;;;;;;;;;;1007704;29;20355;-75
2022/09/02 03:26:44;;;;;;;;;;;;;;;;;;1013139;28;19914;-75
2022/09/02 03:27:14;;;;;;;;;;;;;;;;;;1007835;29;20361;-75
2022/09/02 03:27:45;;;;;;;;;;;;;;;;;;1008649;28;19958;-76
2022/09/02 03:28:16;;;;;;;;;;;;;;;;;;1005678;29;20018;-74
2022/09/02 03:28:47;;;;;;;;;;;;;;;;;;1008774;29;20269;-74
2022/09/02 03:29:17;;;;;;;;;;;;;;;;;;1006536;29;20598;-75
2022/09/02 03:29:47;;;;;;;;;;;;;;;;;;1007779;29;19919;-75